sensor_id;sensor_type;location;lat;lon;timestamp;P1;durP1;ratioP1;P2;durP2;ratioP2
61393;SDS011;48555;50.952;-0.120;2022-12-24T00:00:58;33.00;;;5.38;;
61393;SDS011;48555;50.952;-0.120;2022-12-24T00:03:24;30.88;;;5.13;;
61393;SDS011;48555;50.952;-0.120;2022-12-24T00:05:49;25.60;;;5.38;;
61393;SDS011;48555;50.952;-0.120;2022-12-24T00:08:15;36.15;;;5.00;;
61393;SDS011;48555;50.952;-0.120;2022-12-24T00:10:40;29.23;;;4.97;;
61393;SDS011;48555;50.952;-0.120;2022-12-24T00:13:05;36.42;;;6.20;;
61393;SDS011;48555;50.952;-0.120;2022-12-24T00:15:31;31.42;;;5.30;;
61393;SDS011;48555;50.952;-0.120;2022-12-24T00:17:56;33.88;;;5.97;;
61393;SDS011;48555;50.952;-0.120;2022-12-24T00:20:21;36.28;;;5.93;;
61393;SDS011;48555;50.952;-0.120;2022-12-24T00:22:48;28.90;;;5.60;;
61393;SDS011;48555;50.952;-0.120;2022-12-24T00:25:14;37.63;;;6.07;;
61393;SDS011;48555;50.952;-0.120;2022-12-24T00:27:39;31.75;;;6.07;;
61393;SDS011;48555;50.952;-0.120;2022-12-24T00:30:05;33.70;;;5.70;;
61393;SDS011;48555;50.952;-0.120;2022-12-24T00:32:31;30.52;;;4.55;;
61393;SDS011;48555;50.952;-0.120;2022-12-24T00:34:56;35.05;;;5.05;;
61393;SDS011;48555;50.952;-0.120;2022-12-24T00:37:21;31.13;;;4.93;;
61393;SDS011;48555;50.952;-0.120;2022-12-24T00:39:47;27.90;;;5.03;;
61393;SDS011;48555;50.952;-0.120;2022-12-24T00:42:12;26.02;;;4.43;;
61393;SDS011;48555;50.952;-0.120;2022-12-24T00:44:37;27.20;;;4.28;;
61393;SDS011;48555;50.952;-0.120;2022-12-24T00:47:03;26.42;;;4.57;;
61393;SDS011;48555;50.952;-0.120;2022-12-24T00:49:28;24.77;;;4.68;;
61393;SDS011;48555;50.952;-0.120;2022-12-24T00:51:53;26.70;;;4.25;;
61393;SDS011;48555;50.952;-0.120;2022-12-24T00:54:19;24.17;;;4.15;;
61393;SDS011;48555;50.952;-0.120;2022-12-24T00:56:44;28.42;;;4.22;;
61393;SDS011;48555;50.952;-0.120;2022-12-24T00:59:10;29.30;;;4.78;;
61393;SDS011;48555;50.952;-0.120;2022-12-24T01:01:36;25.35;;;5.40;;
61393;SDS011;48555;50.952;-0.120;2022-12-24T01:04:01;24.75;;;4.50;;
61393;SDS011;48555;50.952;-0.120;2022-12-24T01:06:45;25.90;;;4.97;;
61393;SDS011;48555;50.952;-0.120;2022-12-24T01:09:11;25.70;;;4.30;;
61393;SDS011;48555;50.952;-0.120;2022-12-24T01:11:36;30.15;;;4.68;;
61393;SDS011;48555;50.952;-0.120;2022-12-24T01:14:01;33.30;;;5.50;;
61393;SDS011;48555;50.952;-0.120;2022-12-24T01:16:27;35.33;;;4.85;;
61393;SDS011;48555;50.952;-0.120;2022-12-24T01:18:52;30.35;;;4.47;;
61393;SDS011;48555;50.952;-0.120;2022-12-24T01:21:18;34.03;;;4.93;;
61393;SDS011;48555;50.952;-0.120;2022-12-24T01:23:43;26.48;;;5.13;;
61393;SDS011;48555;50.952;-0.120;2022-12-24T01:26:08;30.33;;;5.10;;
61393;SDS011;48555;50.952;-0.120;2022-12-24T01:28:36;26.95;;;5.00;;
61393;SDS011;48555;50.952;-0.120;2022-12-24T01:31:02;26.13;;;5.50;;
61393;SDS011;48555;50.952;-0.120;2022-12-24T01:36:01;30.33;;;4.63;;
61393;SDS011;48555;50.952;-0.120;2022-12-24T01:38:27;26.55;;;4.40;;
61393;SDS011;48555;50.952;-0.120;2022-12-24T01:40:52;34.58;;;5.22;;
61393;SDS011;48555;50.952;-0.120;2022-12-24T01:43:36;26.80;;;4.93;;
61393;SDS011;48555;50.952;-0.120;2022-12-24T01:46:02;33.17;;;5.30;;
61393;SDS011;48555;50.952;-0.120;2022-12-24T01:48:33;30.23;;;4.97;;
61393;SDS011;48555;50.952;-0.120;2022-12-24T01:51:08;25.80;;;5.05;;
61393;SDS011;48555;50.952;-0.120;2022-12-24T01:53:38;26.23;;;5.22;;
61393;SDS011;48555;50.952;-0.120;2022-12-24T01:56:07;26.50;;;4.30;;
61393;SDS011;48555;50.952;-0.120;2022-12-24T01:58:35;30.63;;;4.90;;
61393;SDS011;48555;50.952;-0.120;2022-12-24T02:01:04;33.55;;;4.78;;
61393;SDS011;48555;50.952;-0.120;2022-12-24T02:03:30;28.92;;;4.82;;
61393;SDS011;48555;50.952;-0.120;2022-12-24T02:05:56;31.65;;;4.70;;
61393;SDS011;48555;50.952;-0.120;2022-12-24T02:08:23;30.48;;;4.55;;
61393;SDS011;48555;50.952;-0.120;2022-12-24T02:10:49;28.15;;;5.03;;
61393;SDS011;48555;50.952;-0.120;2022-12-24T02:13:16;27.13;;;5.70;;
61393;SDS011;48555;50.952;-0.120;2022-12-24T02:15:56;30.85;;;5.20;;
61393;SDS011;48555;50.952;-0.120;2022-12-24T02:21:31;27.13;;;4.50;;
61393;SDS011;48555;50.952;-0.120;2022-12-24T02:24:36;26.63;;;4.53;;
61393;SDS011;48555;50.952;-0.120;2022-12-24T02:27:31;34.13;;;5.70;;
61393;SDS011;48555;50.952;-0.120;2022-12-24T02:29:58;27.55;;;4.38;;
61393;SDS011;48555;50.952;-0.120;2022-12-24T02:32:46;27.33;;;4.85;;
61393;SDS011;48555;50.952;-0.120;2022-12-24T02:37:57;28.48;;;4.80;;
61393;SDS011;48555;50.952;-0.120;2022-12-24T02:40:37;31.95;;;4.97;;
61393;SDS011;48555;50.952;-0.120;2022-12-24T02:43:09;26.25;;;4.60;;
61393;SDS011;48555;50.952;-0.120;2022-12-24T02:45:37;27.42;;;4.00;;
61393;SDS011;48555;50.952;-0.120;2022-12-24T02:48:06;32.53;;;4.93;;
61393;SDS011;48555;50.952;-0.120;2022-12-24T02:50:33;30.50;;;4.88;;
61393;SDS011;48555;50.952;-0.120;2022-12-24T02:52:59;29.15;;;4.45;;
61393;SDS011;48555;50.952;-0.120;2022-12-24T02:55:33;31.17;;;5.35;;
61393;SDS011;48555;50.952;-0.120;2022-12-24T02:58:17;27.10;;;4.30;;
61393;SDS011;48555;50.952;-0.120;2022-12-24T03:01:16;38.08;;;5.85;;
61393;SDS011;48555;50.952;-0.120;2022-12-24T03:06:23;27.63;;;4.68;;
61393;SDS011;48555;50.952;-0.120;2022-12-24T03:09:00;37.33;;;5.15;;
61393;SDS011;48555;50.952;-0.120;2022-12-24T03:11:34;29.40;;;5.13;;
61393;SDS011;48555;50.952;-0.120;2022-12-24T03:14:02;28.38;;;4.88;;
61393;SDS011;48555;50.952;-0.120;2022-12-24T03:16:28;31.60;;;5.28;;
61393;SDS011;48555;50.952;-0.120;2022-12-24T03:18:54;35.55;;;5.63;;
61393;SDS011;48555;50.952;-0.120;2022-12-24T03:21:23;32.65;;;5.88;;
61393;SDS011;48555;50.952;-0.120;2022-12-24T03:23:53;29.67;;;4.82;;
61393;SDS011;48555;50.952;-0.120;2022-12-24T03:26:19;36.20;;;5.32;;
61393;SDS011;48555;50.952;-0.120;2022-12-24T03:28:45;33.10;;;4.80;;
61393;SDS011;48555;50.952;-0.120;2022-12-24T03:31:12;28.33;;;4.50;;
61393;SDS011;48555;50.952;-0.120;2022-12-24T03:33:38;29.38;;;4.72;;
61393;SDS011;48555;50.952;-0.120;2022-12-24T03:36:04;27.52;;;5.40;;
61393;SDS011;48555;50.952;-0.120;2022-12-24T03:38:30;29.05;;;4.50;;
61393;SDS011;48555;50.952;-0.120;2022-12-24T03:40:56;33.90;;;5.18;;
61393;SDS011;48555;50.952;-0.120;2022-12-24T03:43:21;26.17;;;5.45;;
61393;SDS011;48555;50.952;-0.120;2022-12-24T03:45:47;21.35;;;4.43;;
61393;SDS011;48555;50.952;-0.120;2022-12-24T03:48:12;33.75;;;4.80;;
61393;SDS011;48555;50.952;-0.120;2022-12-24T03:50:38;24.75;;;4.25;;
61393;SDS011;48555;50.952;-0.120;2022-12-24T03:53:03;36.42;;;5.72;;
61393;SDS011;48555;50.952;-0.120;2022-12-24T03:55:28;36.55;;;5.35;;
61393;SDS011;48555;50.952;-0.120;2022-12-24T03:57:54;27.35;;;4.65;;
61393;SDS011;48555;50.952;-0.120;2022-12-24T04:00:19;30.80;;;4.72;;
61393;SDS011;48555;50.952;-0.120;2022-12-24T04:02:45;23.88;;;4.78;;
61393;SDS011;48555;50.952;-0.120;2022-12-24T04:05:14;26.95;;;5.43;;
61393;SDS011;48555;50.952;-0.120;2022-12-24T04:07:41;28.50;;;4.55;;
61393;SDS011;48555;50.952;-0.120;2022-12-24T04:10:08;31.95;;;5.03;;
61393;SDS011;48555;50.952;-0.120;2022-12-24T04:12:34;33.92;;;4.32;;
61393;SDS011;48555;50.952;-0.120;2022-12-24T04:14:59;26.42;;;4.65;;
61393;SDS011;48555;50.952;-0.120;2022-12-24T04:17:25;28.40;;;4.28;;
61393;SDS011;48555;50.952;-0.120;2022-12-24T04:19:50;26.65;;;4.32;;
61393;SDS011;48555;50.952;-0.120;2022-12-24T04:22:16;23.52;;;4.07;;
61393;SDS011;48555;50.952;-0.120;2022-12-24T04:24:41;21.63;;;4.90;;
61393;SDS011;48555;50.952;-0.120;2022-12-24T04:27:07;27.17;;;4.82;;
61393;SDS011;48555;50.952;-0.120;2022-12-24T04:29:33;33.90;;;5.75;;
61393;SDS011;48555;50.952;-0.120;2022-12-24T04:31:58;31.27;;;4.40;;
61393;SDS011;48555;50.952;-0.120;2022-12-24T04:34:23;27.50;;;4.07;;
61393;SDS011;48555;50.952;-0.120;2022-12-24T04:36:49;24.20;;;4.85;;
61393;SDS011;48555;50.952;-0.120;2022-12-24T04:39:14;25.38;;;4.38;;
61393;SDS011;48555;50.952;-0.120;2022-12-24T04:41:39;26.45;;;4.50;;
61393;SDS011;48555;50.952;-0.120;2022-12-24T04:44:05;26.50;;;4.65;;
61393;SDS011;48555;50.952;-0.120;2022-12-24T04:46:30;27.67;;;4.43;;
61393;SDS011;48555;50.952;-0.120;2022-12-24T04:48:56;20.88;;;4.53;;
61393;SDS011;48555;50.952;-0.120;2022-12-24T04:51:22;32.88;;;4.35;;
61393;SDS011;48555;50.952;-0.120;2022-12-24T04:53:49;24.67;;;4.10;;
61393;SDS011;48555;50.952;-0.120;2022-12-24T04:56:15;25.65;;;4.40;;
61393;SDS011;48555;50.952;-0.120;2022-12-24T04:58:46;19.10;;;3.80;;
61393;SDS011;48555;50.952;-0.120;2022-12-24T05:01:12;21.80;;;3.92;;
61393;SDS011;48555;50.952;-0.120;2022-12-24T05:03:39;24.70;;;4.47;;
61393;SDS011;48555;50.952;-0.120;2022-12-24T05:06:07;22.75;;;3.30;;
61393;SDS011;48555;50.952;-0.120;2022-12-24T05:08:34;26.55;;;4.43;;
61393;SDS011;48555;50.952;-0.120;2022-12-24T05:11:00;19.30;;;4.45;;
61393;SDS011;48555;50.952;-0.120;2022-12-24T05:13:27;23.83;;;5.00;;
61393;SDS011;48555;50.952;-0.120;2022-12-24T05:15:52;26.35;;;4.00;;
61393;SDS011;48555;50.952;-0.120;2022-12-24T05:18:18;23.85;;;3.17;;
61393;SDS011;48555;50.952;-0.120;2022-12-24T05:20:44;17.23;;;3.10;;
61393;SDS011;48555;50.952;-0.120;2022-12-24T05:23:20;17.13;;;3.67;;
61393;SDS011;48555;50.952;-0.120;2022-12-24T05:26:16;19.77;;;3.60;;
61393;SDS011;48555;50.952;-0.120;2022-12-24T05:28:46;19.10;;;3.40;;
61393;SDS011;48555;50.952;-0.120;2022-12-24T05:31:12;24.98;;;3.80;;
61393;SDS011;48555;50.952;-0.120;2022-12-24T05:33:37;23.05;;;4.20;;
61393;SDS011;48555;50.952;-0.120;2022-12-24T05:36:03;19.83;;;3.22;;
61393;SDS011;48555;50.952;-0.120;2022-12-24T05:38:28;21.08;;;4.13;;
61393;SDS011;48555;50.952;-0.120;2022-12-24T05:40:54;23.90;;;3.78;;
61393;SDS011;48555;50.952;-0.120;2022-12-24T05:43:19;18.38;;;3.60;;
61393;SDS011;48555;50.952;-0.120;2022-12-24T05:45:45;22.50;;;3.75;;
61393;SDS011;48555;50.952;-0.120;2022-12-24T05:48:10;23.38;;;3.85;;
61393;SDS011;48555;50.952;-0.120;2022-12-24T05:50:37;25.35;;;3.90;;
61393;SDS011;48555;50.952;-0.120;2022-12-24T05:53:04;23.10;;;3.58;;
61393;SDS011;48555;50.952;-0.120;2022-12-24T05:55:30;20.38;;;3.72;;
61393;SDS011;48555;50.952;-0.120;2022-12-24T05:57:55;23.73;;;3.88;;
61393;SDS011;48555;50.952;-0.120;2022-12-24T06:00:20;15.80;;;3.20;;
61393;SDS011;48555;50.952;-0.120;2022-12-24T06:02:46;23.27;;;3.97;;
61393;SDS011;48555;50.952;-0.120;2022-12-24T06:05:11;19.25;;;3.58;;
61393;SDS011;48555;50.952;-0.120;2022-12-24T06:07:37;18.52;;;3.47;;
61393;SDS011;48555;50.952;-0.120;2022-12-24T06:10:02;25.33;;;3.97;;
61393;SDS011;48555;50.952;-0.120;2022-12-24T06:12:28;16.50;;;3.97;;
61393;SDS011;48555;50.952;-0.120;2022-12-24T06:14:54;15.98;;;3.28;;
61393;SDS011;48555;50.952;-0.120;2022-12-24T06:17:19;19.65;;;3.67;;
61393;SDS011;48555;50.952;-0.120;2022-12-24T06:19:44;24.27;;;3.33;;
61393;SDS011;48555;50.952;-0.120;2022-12-24T06:22:10;22.33;;;3.13;;
61393;SDS011;48555;50.952;-0.120;2022-12-24T06:24:35;13.40;;;2.78;;
61393;SDS011;48555;50.952;-0.120;2022-12-24T06:27:01;17.92;;;3.20;;
61393;SDS011;48555;50.952;-0.120;2022-12-24T06:29:26;15.95;;;3.70;;
61393;SDS011;48555;50.952;-0.120;2022-12-24T06:31:51;29.88;;;4.32;;
61393;SDS011;48555;50.952;-0.120;2022-12-24T06:34:17;15.40;;;3.72;;
61393;SDS011;48555;50.952;-0.120;2022-12-24T06:36:42;21.08;;;4.07;;
61393;SDS011;48555;50.952;-0.120;2022-12-24T06:39:08;22.80;;;3.50;;
61393;SDS011;48555;50.952;-0.120;2022-12-24T06:41:33;17.38;;;3.35;;
61393;SDS011;48555;50.952;-0.120;2022-12-24T06:43:58;25.33;;;3.63;;
61393;SDS011;48555;50.952;-0.120;2022-12-24T06:46:24;25.70;;;4.03;;
61393;SDS011;48555;50.952;-0.120;2022-12-24T06:48:49;15.25;;;3.05;;
61393;SDS011;48555;50.952;-0.120;2022-12-24T06:51:15;22.88;;;3.50;;
61393;SDS011;48555;50.952;-0.120;2022-12-24T06:53:43;22.35;;;3.13;;
61393;SDS011;48555;50.952;-0.120;2022-12-24T06:56:10;23.20;;;3.45;;
61393;SDS011;48555;50.952;-0.120;2022-12-24T06:58:37;24.40;;;3.28;;
61393;SDS011;48555;50.952;-0.120;2022-12-24T07:01:03;19.08;;;4.20;;
61393;SDS011;48555;50.952;-0.120;2022-12-24T07:03:30;19.45;;;3.28;;
61393;SDS011;48555;50.952;-0.120;2022-12-24T07:05:56;20.80;;;3.17;;
61393;SDS011;48555;50.952;-0.120;2022-12-24T07:08:22;17.05;;;3.22;;
61393;SDS011;48555;50.952;-0.120;2022-12-24T07:10:48;28.48;;;3.65;;
61393;SDS011;48555;50.952;-0.120;2022-12-24T07:13:14;21.38;;;3.53;;
61393;SDS011;48555;50.952;-0.120;2022-12-24T07:15:40;17.58;;;3.63;;
61393;SDS011;48555;50.952;-0.120;2022-12-24T07:18:05;19.45;;;3.45;;
61393;SDS011;48555;50.952;-0.120;2022-12-24T07:20:30;23.88;;;3.33;;
61393;SDS011;48555;50.952;-0.120;2022-12-24T07:22:56;24.08;;;3.92;;
61393;SDS011;48555;50.952;-0.120;2022-12-24T07:25:21;20.00;;;3.85;;
61393;SDS011;48555;50.952;-0.120;2022-12-24T07:27:47;25.48;;;4.85;;
61393;SDS011;48555;50.952;-0.120;2022-12-24T07:30:12;16.00;;;3.25;;
61393;SDS011;48555;50.952;-0.120;2022-12-24T07:32:37;17.75;;;3.65;;
61393;SDS011;48555;50.952;-0.120;2022-12-24T07:35:03;26.33;;;4.30;;
61393;SDS011;48555;50.952;-0.120;2022-12-24T07:37:29;18.38;;;3.70;;
61393;SDS011;48555;50.952;-0.120;2022-12-24T07:39:54;23.27;;;3.92;;
61393;SDS011;48555;50.952;-0.120;2022-12-24T07:42:19;18.38;;;3.03;;
61393;SDS011;48555;50.952;-0.120;2022-12-24T07:44:45;16.13;;;3.42;;
61393;SDS011;48555;50.952;-0.120;2022-12-24T07:47:11;18.00;;;3.67;;
61393;SDS011;48555;50.952;-0.120;2022-12-24T07:49:36;19.65;;;3.35;;
61393;SDS011;48555;50.952;-0.120;2022-12-24T07:52:02;18.35;;;3.15;;
61393;SDS011;48555;50.952;-0.120;2022-12-24T07:54:27;17.02;;;3.53;;
61393;SDS011;48555;50.952;-0.120;2022-12-24T07:56:53;17.95;;;3.20;;
61393;SDS011;48555;50.952;-0.120;2022-12-24T07:59:18;17.67;;;3.58;;
61393;SDS011;48555;50.952;-0.120;2022-12-24T08:01:45;17.90;;;3.30;;
61393;SDS011;48555;50.952;-0.120;2022-12-24T08:04:10;17.67;;;3.65;;
61393;SDS011;48555;50.952;-0.120;2022-12-24T08:06:36;17.58;;;3.15;;
61393;SDS011;48555;50.952;-0.120;2022-12-24T08:09:01;17.50;;;3.15;;
61393;SDS011;48555;50.952;-0.120;2022-12-24T08:11:27;16.52;;;2.80;;
61393;SDS011;48555;50.952;-0.120;2022-12-24T08:13:53;17.15;;;3.15;;
61393;SDS011;48555;50.952;-0.120;2022-12-24T08:16:18;20.85;;;3.60;;
61393;SDS011;48555;50.952;-0.120;2022-12-24T08:18:44;21.52;;;3.47;;
61393;SDS011;48555;50.952;-0.120;2022-12-24T08:21:09;19.25;;;3.10;;
61393;SDS011;48555;50.952;-0.120;2022-12-24T08:23:35;15.95;;;2.90;;
61393;SDS011;48555;50.952;-0.120;2022-12-24T08:26:01;12.90;;;3.20;;
61393;SDS011;48555;50.952;-0.120;2022-12-24T08:28:28;21.02;;;2.97;;
61393;SDS011;48555;50.952;-0.120;2022-12-24T08:30:53;20.30;;;3.47;;
61393;SDS011;48555;50.952;-0.120;2022-12-24T08:33:19;16.98;;;3.40;;
61393;SDS011;48555;50.952;-0.120;2022-12-24T08:35:48;19.40;;;3.33;;
61393;SDS011;48555;50.952;-0.120;2022-12-24T08:38:17;14.20;;;3.25;;
61393;SDS011;48555;50.952;-0.120;2022-12-24T08:40:43;20.63;;;3.83;;
61393;SDS011;48555;50.952;-0.120;2022-12-24T08:43:12;16.92;;;3.03;;
61393;SDS011;48555;50.952;-0.120;2022-12-24T08:45:38;13.13;;;3.00;;
61393;SDS011;48555;50.952;-0.120;2022-12-24T08:48:04;10.30;;;2.53;;
61393;SDS011;48555;50.952;-0.120;2022-12-24T08:50:30;12.88;;;2.65;;
61393;SDS011;48555;50.952;-0.120;2022-12-24T08:52:55;14.77;;;3.08;;
61393;SDS011;48555;50.952;-0.120;2022-12-24T08:55:21;15.48;;;2.83;;
61393;SDS011;48555;50.952;-0.120;2022-12-24T08:57:46;13.68;;;2.67;;
61393;SDS011;48555;50.952;-0.120;2022-12-24T09:00:11;14.13;;;3.30;;
61393;SDS011;48555;50.952;-0.120;2022-12-24T09:02:38;11.77;;;2.67;;
61393;SDS011;48555;50.952;-0.120;2022-12-24T09:05:03;9.15;;;2.30;;
61393;SDS011;48555;50.952;-0.120;2022-12-24T09:07:29;10.20;;;2.78;;
61393;SDS011;48555;50.952;-0.120;2022-12-24T09:09:55;10.30;;;2.88;;
61393;SDS011;48555;50.952;-0.120;2022-12-24T09:12:20;9.38;;;2.55;;
61393;SDS011;48555;50.952;-0.120;2022-12-24T09:14:45;14.48;;;3.75;;
61393;SDS011;48555;50.952;-0.120;2022-12-24T09:17:11;13.43;;;2.60;;
61393;SDS011;48555;50.952;-0.120;2022-12-24T09:19:36;13.27;;;2.78;;
61393;SDS011;48555;50.952;-0.120;2022-12-24T09:22:01;11.93;;;2.90;;
61393;SDS011;48555;50.952;-0.120;2022-12-24T09:24:27;14.20;;;2.78;;
61393;SDS011;48555;50.952;-0.120;2022-12-24T09:26:53;13.27;;;2.97;;
61393;SDS011;48555;50.952;-0.120;2022-12-24T09:29:18;14.50;;;3.63;;
61393;SDS011;48555;50.952;-0.120;2022-12-24T09:31:44;11.73;;;3.03;;
61393;SDS011;48555;50.952;-0.120;2022-12-24T09:34:09;10.43;;;2.55;;
61393;SDS011;48555;50.952;-0.120;2022-12-24T09:36:35;12.38;;;2.70;;
61393;SDS011;48555;50.952;-0.120;2022-12-24T09:39:00;8.32;;;2.42;;
61393;SDS011;48555;50.952;-0.120;2022-12-24T09:46:56;15.02;;;3.58;;
61393;SDS011;48555;50.952;-0.120;2022-12-24T09:49:26;13.50;;;3.20;;
61393;SDS011;48555;50.952;-0.120;2022-12-24T09:51:59;17.52;;;3.03;;
61393;SDS011;48555;50.952;-0.120;2022-12-24T09:54:30;13.23;;;3.10;;
61393;SDS011;48555;50.952;-0.120;2022-12-24T09:57:01;15.63;;;3.95;;
61393;SDS011;48555;50.952;-0.120;2022-12-24T09:59:40;12.57;;;3.22;;
61393;SDS011;48555;50.952;-0.120;2022-12-24T10:02:10;11.55;;;3.58;;
61393;SDS011;48555;50.952;-0.120;2022-12-24T10:04:39;17.83;;;3.58;;
61393;SDS011;48555;50.952;-0.120;2022-12-24T10:10:01;14.50;;;3.13;;
61393;SDS011;48555;50.952;-0.120;2022-12-24T10:15:30;17.73;;;3.17;;
61393;SDS011;48555;50.952;-0.120;2022-12-24T10:18:11;13.13;;;2.50;;
61393;SDS011;48555;50.952;-0.120;2022-12-24T10:28:51;13.15;;;3.33;;
61393;SDS011;48555;50.952;-0.120;2022-12-24T10:31:22;14.95;;;3.00;;
61393;SDS011;48555;50.952;-0.120;2022-12-24T10:33:56;13.77;;;2.92;;
61393;SDS011;48555;50.952;-0.120;2022-12-24T10:36:26;18.73;;;3.40;;
61393;SDS011;48555;50.952;-0.120;2022-12-24T10:38:53;12.55;;;3.10;;
61393;SDS011;48555;50.952;-0.120;2022-12-24T10:41:19;8.00;;;2.13;;
61393;SDS011;48555;50.952;-0.120;2022-12-24T10:43:45;16.30;;;3.35;;
61393;SDS011;48555;50.952;-0.120;2022-12-24T10:46:21;13.90;;;2.88;;
61393;SDS011;48555;50.952;-0.120;2022-12-24T10:48:56;11.23;;;2.97;;
61393;SDS011;48555;50.952;-0.120;2022-12-24T10:55:03;20.40;;;3.00;;
61393;SDS011;48555;50.952;-0.120;2022-12-24T10:57:22;19.23;;;3.13;;
61393;SDS011;48555;50.952;-0.120;2022-12-24T10:59:53;18.23;;;3.72;;
61393;SDS011;48555;50.952;-0.120;2022-12-24T11:02:25;23.58;;;4.60;;
61393;SDS011;48555;50.952;-0.120;2022-12-24T11:04:55;23.33;;;3.92;;
61393;SDS011;48555;50.952;-0.120;2022-12-24T11:07:23;23.00;;;3.22;;
61393;SDS011;48555;50.952;-0.120;2022-12-24T11:10:13;25.13;;;3.75;;
61393;SDS011;48555;50.952;-0.120;2022-12-24T11:12:46;15.95;;;4.03;;
61393;SDS011;48555;50.952;-0.120;2022-12-24T11:15:17;22.42;;;3.33;;
61393;SDS011;48555;50.952;-0.120;2022-12-24T11:17:53;17.67;;;3.20;;
61393;SDS011;48555;50.952;-0.120;2022-12-24T11:20:21;23.83;;;4.13;;
61393;SDS011;48555;50.952;-0.120;2022-12-24T11:22:51;21.83;;;3.22;;
61393;SDS011;48555;50.952;-0.120;2022-12-24T11:25:20;19.92;;;3.40;;
61393;SDS011;48555;50.952;-0.120;2022-12-24T11:27:51;17.63;;;3.63;;
61393;SDS011;48555;50.952;-0.120;2022-12-24T11:30:18;24.98;;;3.75;;
61393;SDS011;48555;50.952;-0.120;2022-12-24T11:35:38;20.10;;;3.72;;
61393;SDS011;48555;50.952;-0.120;2022-12-24T11:40:35;25.05;;;4.15;;
61393;SDS011;48555;50.952;-0.120;2022-12-24T11:43:04;20.88;;;3.85;;
61393;SDS011;48555;50.952;-0.120;2022-12-24T11:45:31;22.15;;;3.28;;
61393;SDS011;48555;50.952;-0.120;2022-12-24T11:47:58;25.85;;;4.05;;
61393;SDS011;48555;50.952;-0.120;2022-12-24T11:55:32;21.25;;;4.13;;
61393;SDS011;48555;50.952;-0.120;2022-12-24T11:58:14;23.63;;;4.32;;
61393;SDS011;48555;50.952;-0.120;2022-12-24T12:00:45;23.67;;;4.13;;
61393;SDS011;48555;50.952;-0.120;2022-12-24T12:05:50;21.77;;;4.05;;
61393;SDS011;48555;50.952;-0.120;2022-12-24T12:08:19;20.40;;;4.20;;
61393;SDS011;48555;50.952;-0.120;2022-12-24T12:10:46;23.35;;;4.13;;
61393;SDS011;48555;50.952;-0.120;2022-12-24T12:13:19;18.52;;;3.42;;
61393;SDS011;48555;50.952;-0.120;2022-12-24T12:16:10;21.98;;;4.20;;
61393;SDS011;48555;50.952;-0.120;2022-12-24T12:18:45;18.40;;;3.45;;
61393;SDS011;48555;50.952;-0.120;2022-12-24T12:21:19;22.20;;;4.00;;
61393;SDS011;48555;50.952;-0.120;2022-12-24T12:23:57;19.25;;;3.67;;
61393;SDS011;48555;50.952;-0.120;2022-12-24T12:26:28;20.08;;;3.80;;
61393;SDS011;48555;50.952;-0.120;2022-12-24T12:29:10;21.65;;;3.38;;
61393;SDS011;48555;50.952;-0.120;2022-12-24T12:31:44;20.40;;;4.25;;
61393;SDS011;48555;50.952;-0.120;2022-12-24T12:36:57;20.95;;;4.07;;
61393;SDS011;48555;50.952;-0.120;2022-12-24T12:39:32;24.98;;;5.05;;
61393;SDS011;48555;50.952;-0.120;2022-12-24T12:45:02;25.50;;;4.38;;
61393;SDS011;48555;50.952;-0.120;2022-12-24T12:50:49;21.10;;;4.25;;
61393;SDS011;48555;50.952;-0.120;2022-12-24T12:56:30;31.45;;;4.55;;
61393;SDS011;48555;50.952;-0.120;2022-12-24T13:01:28;26.02;;;4.38;;
61393;SDS011;48555;50.952;-0.120;2022-12-24T13:04:09;23.10;;;4.35;;
61393;SDS011;48555;50.952;-0.120;2022-12-24T13:07:24;21.40;;;3.85;;
61393;SDS011;48555;50.952;-0.120;2022-12-24T13:09:58;33.10;;;6.35;;
61393;SDS011;48555;50.952;-0.120;2022-12-24T13:15:24;23.42;;;4.30;;
61393;SDS011;48555;50.952;-0.120;2022-12-24T13:20:27;21.15;;;4.18;;
61393;SDS011;48555;50.952;-0.120;2022-12-24T13:25:21;24.48;;;4.18;;
61393;SDS011;48555;50.952;-0.120;2022-12-24T13:27:52;25.23;;;4.45;;
61393;SDS011;48555;50.952;-0.120;2022-12-24T13:30:31;25.05;;;4.60;;
61393;SDS011;48555;50.952;-0.120;2022-12-24T13:33:06;30.95;;;4.45;;
61393;SDS011;48555;50.952;-0.120;2022-12-24T13:35:35;28.15;;;4.57;;
61393;SDS011;48555;50.952;-0.120;2022-12-24T13:40:56;25.60;;;4.15;;
61393;SDS011;48555;50.952;-0.120;2022-12-24T13:49:35;19.75;;;4.10;;
61393;SDS011;48555;50.952;-0.120;2022-12-24T13:52:24;19.50;;;3.63;;
61393;SDS011;48555;50.952;-0.120;2022-12-24T14:00:26;21.63;;;4.07;;
61393;SDS011;48555;50.952;-0.120;2022-12-24T14:02:56;27.67;;;5.45;;
61393;SDS011;48555;50.952;-0.120;2022-12-24T14:08:11;21.98;;;3.88;;
61393;SDS011;48555;50.952;-0.120;2022-12-24T14:10:42;21.25;;;4.28;;
61393;SDS011;48555;50.952;-0.120;2022-12-24T14:16:03;18.00;;;3.80;;
61393;SDS011;48555;50.952;-0.120;2022-12-24T14:18:39;21.08;;;4.57;;
61393;SDS011;48555;50.952;-0.120;2022-12-24T14:21:13;31.02;;;4.55;;
61393;SDS011;48555;50.952;-0.120;2022-12-24T14:23:51;23.42;;;4.45;;
61393;SDS011;48555;50.952;-0.120;2022-12-24T14:26:19;18.42;;;3.92;;
61393;SDS011;48555;50.952;-0.120;2022-12-24T14:28:52;24.48;;;4.03;;
61393;SDS011;48555;50.952;-0.120;2022-12-24T14:31:19;26.20;;;4.43;;
61393;SDS011;48555;50.952;-0.120;2022-12-24T14:33:44;18.45;;;3.58;;
61393;SDS011;48555;50.952;-0.120;2022-12-24T14:36:10;23.27;;;4.18;;
61393;SDS011;48555;50.952;-0.120;2022-12-24T14:38:39;24.25;;;4.45;;
61393;SDS011;48555;50.952;-0.120;2022-12-24T14:44:00;28.83;;;4.97;;
61393;SDS011;48555;50.952;-0.120;2022-12-24T14:46:39;30.05;;;5.03;;
61393;SDS011;48555;50.952;-0.120;2022-12-24T14:59:39;21.50;;;3.90;;
61393;SDS011;48555;50.952;-0.120;2022-12-24T15:02:24;25.95;;;4.20;;
61393;SDS011;48555;50.952;-0.120;2022-12-24T15:05:03;20.10;;;4.10;;
61393;SDS011;48555;50.952;-0.120;2022-12-24T15:08:09;19.90;;;3.97;;
61393;SDS011;48555;50.952;-0.120;2022-12-24T15:10:44;26.88;;;5.00;;
61393;SDS011;48555;50.952;-0.120;2022-12-24T15:15:45;34.30;;;5.93;;
61393;SDS011;48555;50.952;-0.120;2022-12-24T15:18:17;30.30;;;5.25;;
61393;SDS011;48555;50.952;-0.120;2022-12-24T15:20:48;25.95;;;4.30;;
61393;SDS011;48555;50.952;-0.120;2022-12-24T15:23:19;23.80;;;5.20;;
61393;SDS011;48555;50.952;-0.120;2022-12-24T15:25:50;25.17;;;4.68;;
61393;SDS011;48555;50.952;-0.120;2022-12-24T15:28:16;28.48;;;4.72;;
61393;SDS011;48555;50.952;-0.120;2022-12-24T15:30:44;18.48;;;4.50;;
61393;SDS011;48555;50.952;-0.120;2022-12-24T15:33:09;24.88;;;4.45;;
61393;SDS011;48555;50.952;-0.120;2022-12-24T15:40:42;23.20;;;4.35;;
61393;SDS011;48555;50.952;-0.120;2022-12-24T15:43:13;23.00;;;4.22;;
61393;SDS011;48555;50.952;-0.120;2022-12-24T15:45:39;25.77;;;4.38;;
61393;SDS011;48555;50.952;-0.120;2022-12-24T15:48:09;24.70;;;4.88;;
61393;SDS011;48555;50.952;-0.120;2022-12-24T15:50:46;24.98;;;4.18;;
61393;SDS011;48555;50.952;-0.120;2022-12-24T15:53:18;23.38;;;4.07;;
61393;SDS011;48555;50.952;-0.120;2022-12-24T16:06:16;21.73;;;3.95;;
61393;SDS011;48555;50.952;-0.120;2022-12-24T16:08:42;20.63;;;4.70;;
61393;SDS011;48555;50.952;-0.120;2022-12-24T16:13:37;28.23;;;4.60;;
61393;SDS011;48555;50.952;-0.120;2022-12-24T16:16:07;23.50;;;4.47;;
61393;SDS011;48555;50.952;-0.120;2022-12-24T16:18:35;24.20;;;4.35;;
61393;SDS011;48555;50.952;-0.120;2022-12-24T16:21:04;20.77;;;3.58;;
61393;SDS011;48555;50.952;-0.120;2022-12-24T16:23:52;22.70;;;4.18;;
61393;SDS011;48555;50.952;-0.120;2022-12-24T16:26:18;25.08;;;4.15;;
61393;SDS011;48555;50.952;-0.120;2022-12-24T16:28:44;25.58;;;3.92;;
61393;SDS011;48555;50.952;-0.120;2022-12-24T16:31:19;22.73;;;4.15;;
61393;SDS011;48555;50.952;-0.120;2022-12-24T16:33:54;21.38;;;4.40;;